Weather observations for the past three days for
Sikeston Memorial Municipal Airport
Metric (Imperial)
Date Time (cdt) Wind (kph) Vis. (km) Weather Sky Cond. Temperature (ºC) Relative Humidity Wind Chill (°C) Heat Index (°C) Pressure Precipitation (cm)
Air Dwpt 6 hour altimeter (cm) sea level (mb) 1 hr 3 hr 6 hr
Max. Min.
06 13:35 N 13 16.09 A Few Clouds FEW044 34.7 23.4 52% 41 75.97 0.0
06 13:15 N 20 16.09 A Few Clouds FEW039 34.6 23.8 53% 41 76 0.0
06 12:55 N 17 16.09 Fair CLR 34.4 24.7 34.6 24.5 57% 42 76.02 0.0
06 12:35 N 15 16.09 Fair CLR 34.4 24.9 58% 42 76.02 0.0
06 12:15 NE 19 16.09 Fair CLR 34.4 25.3 59% 43 76.05 0.0
06 11:55 N 17 16.09 Fair CLR 34.2 25.7 61% 43 76.05 0.0
06 11:35 N 19 16.09 Fair CLR 33.9 25.4 61% 42 76.05 0.0
06 11:15 NE 11 16.09 Fair CLR 33.7 25.7 63% 43 76.05 0.0
06 10:55 NE 11 16.09 Fair CLR 33.2 26.3 67% 43 76.05 0.0
06 10:35 N 13 16.09 Fair CLR 32.3 26.3 71% 42 76.07 0.0
06 10:15 NE 11 16.09 Fair CLR 31.6 26.7 75% 41 76.07 0.0
06 09:55 NE 13 16.09 Fair CLR 30.8 26.8 79% 40 76.05 0.0
06 09:35 N 11 16.09 Fair CLR 30.3 26.7 81% 39 76.05 0.0
06 09:15 NE 11 16.09 Fair CLR 29.6 26.4 83% 37 76.05 0.0
06 08:55 NE 15 16.09 Fair CLR 28.6 26.4 88% 35 76.05 0.0
06 08:35 NE 13 16.09 NULL NULL 28.1 26.3 90% 34 76.05 0.0
06 08:15 NE 11 16.09 NULL NULL 27.2 25.9 93% 32 76.05 0.0
06 07:55 N 7 14.48 Fair CLR 26.4 25.6 95% 29 76.02 0.0
06 07:35 N 6 14.48 Fair CLR 25.7 25.3 98% 27 76.02 0.0
06 07:15 N 6 14.48 Fair CLR 25 24.8 99% 25 76 0.0
06 06:55 N 6 14.48 Fair CLR 24.2 24.2 25.5 23.8 100% 23 75.97 0.0
06 06:35 N 6 16.09 Fair CLR 23.9 23.9 100% 22 75.95 0.0
06 06:15 N 7 16.09 Fair CLR 24 24 100% 23 75.95 0.0
06 05:55 N 6 16.09 Fair CLR 23.8 23.8 100% 75.92 0.0
06 05:35 Calm 16.09 Fair CLR 24.2 24.2 100% 23 75.92 0.0
06 05:15 Calm 16.09 Fair CLR 24.3 24.3 100% 23 75.9 0.0
06 04:55 Calm 16.09 Fair CLR 24.3 24.3 100% 23 75.9 0.0
06 04:35 Calm 16.09 Fair CLR 24.3 24.3 100% 23 75.9 0.0
06 04:15 Calm 16.09 Fair CLR 24.9 24.5 98% 25 75.87 0.0
06 03:55 Calm 16.09 Fair CLR 24.7 24.5 99% 25 75.87 0.0
06 03:35 W 7 16.09 Fair CLR 24.9 24.6 98% 25 75.87 0.0
06 03:15 NW 6 16.09 Fair CLR 25.1 24.6 97% 26 75.87 0.0
06 02:55 Calm 16.09 Fair CLR 25.4 24.5 95% 27 75.87 0.0
06 02:35 W 6 16.09 Partly Cloudy SCT090 25.3 24.6 96% 26 75.87 0.0
06 02:15 NW 6 16.09 Partly Cloudy SCT090 25.1 24.6 97% 26 75.87 0.0
06 01:55 W 6 16.09 Fair CLR 24.7 24.3 98% 25 75.87 0.0
06 01:35 Calm 16.09 Fair CLR 25.2 24.4 95% 26 75.87 0.0
06 01:15 Calm 16.09 Fair CLR 25.3 24.4 95% 26 75.9 0.0
06 00:55 Calm 16.09 Fair CLR 25.2 24.6 33 25 96% 26 75.9 0.0
06 00:35 Calm 16.09 Fair CLR 26 24.6 92% 28 75.9 0.0
06 00:15 SW 6 16.09 Fair CLR 25.8 24.6 93% 28 75.92 0.0
05 23:55 Calm 16.09 Fair CLR 25.3 24.8 97% 26 75.92 0.0
05 23:35 Calm 16.09 NULL NULL 25.9 24.7 93% 28 75.92 0.0
05 23:15 Calm 16.09 NULL NULL 25.3 24.9 98% 26 75.92 0.0
05 22:55 Calm 16.09 Fair CLR 26.7 24.9 90% 30 75.87 0.0
05 22:35 W 6 16.09 Fair CLR 26.6 25.2 92% 30 75.87 0.0
05 22:15 Calm 16.09 Fair CLR 26.6 25.3 93% 30 75.87 0.0
05 21:55 Calm 16.09 Fair CLR 27.1 25.5 91% 31 75.87 0.0
05 21:35 NW 6 16.09 Fair CLR 26.9 25.5 92% 31 75.87 0.0
05 21:15 Calm 16.09 Fair CLR 27.4 25.8 91% 32 75.84 0.0
05 20:55 Calm 16.09 Fair CLR 28.1 25.3 85% 33 75.82 0.0
05 20:35 N 6 16.09 Fair CLR 28.3 25 82% 33 75.82 0.0
05 20:15 Calm 16.09 Fair CLR 29.4 23.7 71% 34 75.79 0.0
05 19:55 N 6 16.09 Fair CLR 30.9 22.2 60% 35 75.79 0.0
05 19:35 N 7 16.09 Fair CLR 31.5 21.7 56% 35 75.79 0.0
05 18:15 Calm 16.09 Fair CLR 34.4 21.2 46% 38 75.82 0.0
05 17:55 W 6 16.09 Partly Cloudy SCT150 33.3 21 48% 36 75.79 0.0
05 17:35 W 17 11.27 Light Rain FEW075 SCT120 SCT150 SCT170 31.1 22.7 61% 35 75.82 0.0
05 17:15 N 19 G 31 16.09 Mostly Cloudy FEW080 BKN170 35.7 21.9 45% 40 75.84 0.0
05 16:55 NW 7 14.48 Fair CLR 37.5 21.3 39% 42 75.82 0.0
05 16:35 Vrbl 6 16.09 Fair CLR 38.4 21.4 37% 43 75.82 0.0
05 16:15 Vrbl 6 16.09 Fair CLR 38.3 22 39% 44 75.82 0.0
05 15:55 W 7 16.09 Fair CLR 37.9 21.4 38% 42 75.84 0.0
05 15:35 Vrbl 7 16.09 Fair CLR 38.2 21.4 38% 43 75.84 0.0
05 15:15 Vrbl 6 16.09 Fair CLR 38.7 21 36% 43 75.87 0.0
05 14:55 N 7 16.09 NULL NULL 38.1 21.6 38% 43 75.9 0.0
05 12:55 Vrbl 6 16.09 Fair CLR 37.4 21.6 37.4 23.9 40% 42 76 0.0
05 12:35 NW 9 16.09 Fair CLR 37 21.2 40% 41 76 0.0
05 12:15 W 7 16.09 Fair CLR 36.7 21.7 42% 41 76.02 0.0
05 11:55 W 11 16.09 Fair CLR 37 21.9 42% 42 76.05 0.0
05 11:35 W 9 16.09 Fair CLR 36.6 22.3 44% 42 76.05 0.0
05 11:15 NW 11 16.09 Fair CLR 35.8 22.1 45% 41 76.07 0.0
05 10:55 NW 9 16.09 Fair CLR 35.5 22.3 46% 40 76.07 0.0
05 10:35 W 9 16.09 Fair CLR 34.8 23.1 51% 40 76.07 0.0
05 10:15 Vrbl 6 16.09 Fair CLR 34.7 23.6 52% 41 76.07 0.0
05 09:55 Vrbl 6 16.09 Fair CLR 32.9 24.3 61% 39 76.07 0.0
05 09:35 N 6 16.09 Fair CLR 32.5 24.6 63% 39 76.07 0.0
05 09:15 N 7 16.09 Fair CLR 31.7 24.5 66% 38 76.07 0.0
05 08:55 N 7 16.09 Fair CLR 30 25.9 79% 37 76.05 0.0
05 08:35 Calm 16.09 Fair CLR 28.7 26.4 87% 35 76.07 0.0
05 08:15 Calm 16.09 Fair CLR 27.6 26.5 94% 33 76.05 0.0
05 07:55 Calm 12.87 Fair CLR 26.1 25.9 99% 29 76.05 0.0
05 06:35 Calm 12.87 Fair CLR 23.3 23.3 100% 76 0.0
05 06:15 Calm 14.48 Fair CLR 23.7 23.7 100% 76 0.0
05 05:55 Calm 14.48 NULL NULL 23.5 23.5 100% 75.97 0.0
05 05:35 Calm 14.48 NULL NULL 23.7 23.7 100% 75.97 0.0
05 05:15 Calm 14.48 Fair CLR 24 24 100% 23 75.97 0.0
05 04:55 Calm 16.09 Fair CLR 23.7 23.7 100% 75.95 0.0
05 04:35 Calm 16.09 Fair CLR 23.8 23.8 100% 75.95 0.0
05 04:15 Calm 16.09 Fair CLR 24.2 24.2 100% 23 75.95 0.0
05 03:55 Calm 14.48 Fair CLR 24.4 24.4 100% 24 75.95 0.0
05 03:35 Calm 16.09 Fair CLR 24.4 24.4 100% 24 75.97 0.0
05 03:15 Calm 16.09 Fair CLR 24.1 24.1 100% 23 75.97 0.0
05 02:55 Calm 16.09 Fair CLR 24.7 24.7 100% 24 75.97 0.0
05 02:35 Calm 16.09 Fair CLR 24.9 24.9 100% 25 75.97 0.0
05 02:15 Calm 16.09 Fair CLR 25.3 25.3 100% 26 75.97 0.0
05 01:55 Calm 16.09 Fair CLR 25.5 25.5 100% 27 76 0.0
05 01:35 Calm 16.09 Fair CLR 25.6 25.4 99% 27 76 0.0
05 01:15 Calm 16.09 Fair CLR 25.4 25.4 100% 27 76 0.0
05 00:55 Calm 16.09 Fair CLR 25.6 25.4 33.2 25.6 99% 27 76.02 0.0
05 00:35 Calm 16.09 Fair CLR 26 25.6 98% 28 76.02 0.0
05 00:15 Calm 14.48 Fair CLR 26.1 25.7 98% 29 76.02 0.0
04 23:55 NW 6 16.09 Fair CLR 26.6 25.7 95% 30 76.02 0.0
04 23:35 Calm 16.09 Fair CLR 26.6 25.5 94% 30 76.02 0.0
04 23:15 Calm 16.09 Fair CLR 26.9 25.7 93% 31 76 0.0
04 22:55 Calm 16.09 Fair CLR 27.5 25.4 88% 32 76.02 0.0
04 22:35 Calm 16.09 Fair CLR 27.4 25.8 91% 32 76.02 0.0
04 22:15 Calm 16.09 Fair CLR 27.7 25.8 89% 33 76.02 0.0
04 21:55 SE 6 16.09 Fair CLR 27.1 25.9 93% 31 76.02 0.0
04 21:35 SE 7 16.09 Fair CLR 28.2 25.6 86% 34 76 0.0
04 21:15 Calm 16.09 Fair CLR 28.1 26.1 89% 34 76.02 0.0
04 20:55 Calm 16.09 NULL NULL 29.4 25 77% 35 76 0.0
04 20:35 Calm 16.09 NULL NULL 29.7 24.7 75% 35 76 0.0
04 20:15 E 6 16.09 Fair CLR 29.9 25.1 75% 36 75.97 0.0
04 19:55 Calm 16.09 Fair CLR 30.7 24.8 71% 37 75.95 0.0
04 19:35 Calm 16.09 Fair CLR 30.9 25.3 72% 38 75.95 0.0
04 19:15 Calm 14.48 Fair CLR 32.6 24.3 62% 39 75.95 0.0
04 18:55 Calm 14.48 Fair CLR 33.7 24.5 38 33.5 59% 41 75.95 0.0
04 18:35 E 6 14.48 Fair CLR 33.5 26 65% 43 75.95 0.0
04 18:15 E 7 14.48 Fair CLR 34 25.7 62% 43 75.95 0.0
04 17:55 E 6 16.09 Partly Cloudy SCT060 36.3 22.9 46% 42 75.95 0.0
04 17:35 NE 6 16.09 Fair CLR 36.6 22.8 45% 42 75.95 0.0
04 17:15 Calm 14.48 Fair CLR 36.6 21.9 43% 41 75.95 0.0
04 16:55 Calm 16.09 Fair CLR 36.9 21.8 42% 42 75.95 0.0
04 16:35 E 7 16.09 Fair CLR 35.6 23.9 51% 42 75.97 0.0
04 16:15 E 7 16.09 A Few Clouds FEW070 35.6 24.5 53% 43 76 0.0
04 15:55 Calm 14.48 A Few Clouds FEW070 36.4 22.7 45% 42 76.02 0.0
04 15:35 Calm 16.09 Mostly Cloudy SCT070 BKN090 36.6 22.4 44% 42 76.02 0.0
04 15:15 W 6 16.09 Mostly Cloudy BKN070 36.4 21.4 42% 41 76.02 0.0
04 14:55 Vrbl 6 16.09 A Few Clouds FEW080 36.8 21.3 41% 41 76.05 0.0
04 14:35 Calm 16.09 Partly Cloudy SCT080 36.3 20.9 41% 40 76.07 0.0
04 14:15 Calm 16.09 Fair CLR 36.6 21.4 41% 41 76.1 0.0
04 13:55 SW 7 16.09 Fair CLR 37.6 21.6 39% 42 76.12 0.0
04 13:35 NE 7 16.09 Fair CLR 37.2 21.6 40% 42 76.12 0.0
04 13:15 Calm 16.09 Fair CLR 37.7 21.9 40% 43 76.15 0.0
04 12:55 NE 6 16.09 Fair CLR 36.9 22.1 37.9 23.7 42% 42 76.15 0.0
04 12:35 Calm 16.09 Fair CLR 37.6 22 40% 43 76.17 0.0
04 12:15 Calm 16.09 NULL NULL 37.3 21.9 41% 42 76.17 0.0
04 11:35 SW 7 16.09 Fair CLR 36.5 22.6 45% 42 76.2 0.0
04 10:15 Calm 16.09 Fair CLR 33.7 24.4 58% 41 76.2 0.0
04 09:55 Calm 16.09 Fair CLR 33.1 24.7 61% 40 76.2 0.0
04 09:35 Calm 16.09 Fair CLR 32.3 24.9 65% 39 76.17 0.0
04 09:15 Calm 16.09 Fair CLR 31.6 26 72% 40 76.17 0.0
04 08:55 Calm 16.09 Fair CLR 30.1 26.1 79% 38 76.17 0.0
04 08:35 Calm 16.09 Fair CLR 29.2 26.2 84% 36 76.17 0.0
04 08:15 Calm 16.09 Fair CLR 28 26.1 89% 34 76.17 0.0
04 07:55 Calm 12.87 Fair CLR 26.4 25.5 95% 29 76.15 0.0
04 07:35 Calm 14.48 Fair CLR 25.5 25.2 98% 27 76.15 0.0
04 07:15 Calm 14.48 Fair CLR 24.4 24.4 100% 24 76.12 0.0
04 06:55 Calm 12.87 Fair CLR 23.4 23.4 26.4 23.2 100% 76.12 0.0
04 06:35 Calm 12.87 Fair CLR 23.5 23.5 100% 76.12 0.0
04 06:15 Calm 16.09 Fair CLR 23.7 23.7 100% 76.1 0.0
04 05:55 Calm 16.09 Fair CLR 23.2 23.2 100% 76.07 0.0
04 05:35 Calm 16.09 Fair CLR 23.3 23.3 100% 76.07 0.0
04 05:15 Calm 16.09 Fair CLR 23.7 23.7 100% 76.07 0.0
04 04:55 Calm 14.48 Fair CLR 23.6 23.6 100% 76.07 0.0
04 04:35 Calm 16.09 Fair CLR 23.7 23.7 100% 76.05 0.0
04 04:15 Calm 16.09 Fair CLR 24.3 24.3 100% 23 76.05 0.0
04 03:55 Calm 16.09 Fair CLR 24.6 24.6 100% 24 76.02 0.0
04 03:35 Calm 16.09 NULL NULL 24.7 24.7 100% 24 76.05 0.0
04 03:15 NW 9 16.09 NULL NULL 24.8 24.7 99% 25 76.02 0.0
04 02:55 Calm 16.09 Fair CLR 24.9 24.6 98% 25 76.02 0.0
04 02:35 Calm 16.09 Fair CLR 24.9 24.6 98% 25 76.02 0.0
04 02:15 Calm 16.09 Fair CLR 25.6 24.8 95% 27 76.02 0.0
04 01:55 Calm 16.09 Fair CLR 25.3 24.8 97% 26 76.02 0.0
04 01:35 Calm 16.09 Fair CLR 25.5 25 97% 27 76.02 0.0
04 01:15 Calm 16.09 Fair CLR 25.9 24.8 94% 28 76.05 0.0
04 00:55 Calm 16.09 Fair CLR 26.2 24.9 34 26 93% 29 76.05 0.0
04 00:35 Calm 16.09 Fair CLR 26.8 25 90% 30 76.05 0.0
04 00:15 Calm 16.09 Fair CLR 26.6 25.3 93% 30 76.05 0.0
03 23:55 Calm 16.09 Fair CLR 26.5 25.3 93% 30 76.05 0.0
03 23:35 Calm 16.09 Fair CLR 26.6 25 91% 30 76.05 0.0
03 23:15 Calm 16.09 Fair CLR 26.9 25.1 90% 30 76.07 0.0
03 22:55 Calm 16.09 Fair CLR 27.3 25.4 89% 32 76.07 0.0
03 22:35 Calm 16.09 Fair CLR 27.4 25.1 87% 32 76.07 0.0
03 22:15 Calm 16.09 Fair CLR 27.4 25.2 88% 32 76.07 0.0
03 21:55 Calm 16.09 Fair CLR 27.3 25.2 88% 31 76.07 0.0
03 21:35 Calm 16.09 Fair CLR 27.6 25.1 86% 32 76.07 0.0
03 21:15 Calm 16.09 Fair CLR 28.9 23.8 74% 33 76.05 0.0
03 20:55 Calm 16.09 Fair CLR 28.6 24.2 77% 33 76.02 0.0
03 20:35 SE 6 16.09 Fair CLR 29.8 23.6 69% 34 76.02 0.0
03 20:15 SE 7 16.09 Fair CLR 30 23.6 69% 35 76.02 0.0
03 19:55 SE 7 16.09 Fair CLR 30.8 23.4 65% 36 76.02 0.0
03 19:35 SE 7 14.48 Fair CLR 31.5 23.3 62% 36 76.02 0.0
03 19:15 SE 7 14.48 Fair CLR 32.8 23 56% 38 76 0.0
03 18:55 SE 6 16.09 Fair CLR 34.5 22.2 37.6 34.5 49% 39 76 0.0
03 18:35 S 7 16.09 NULL NULL 34.9 22.2 48% 40 75.97 0.0
03 18:15 S 9 16.09 NULL NULL 35.5 22.5 47% 41 75.97 0.0
03 17:55 S 7 16.09 Fair CLR 36 22 44% 41 75.97 0.0
03 17:35 S 6 16.09 Fair CLR 36.5 21.9 43% 41 76 0.0
03 17:15 SW 7 16.09 Fair CLR 36.7 21.7 42% 41 75.97 0.0
03 16:55 S 9 16.09 Fair CLR 37 21.9 42% 42 75.97 0.0
03 16:35 S 7 16.09 Fair CLR 36.8 22.4 43% 42 76 0.0
03 16:15 S 11 14.48 Fair CLR 37 21.7 41% 42 76 0.0
03 15:55 S 11 16.09 Fair CLR 37.1 21.3 40% 41 76.02 0.0
03 15:35 Vrbl 6 16.09 Fair CLR 36.9 21.3 40% 41 76.02 0.0
03 15:15 SE 11 16.09 Fair CLR 37.5 21.2 39% 42 76.05 0.0
03 14:55 S 15 16.09 A Few Clouds FEW065 37.6 21.5 39% 42 76.05 0.0
03 14:35 S 11 16.09 A Few Clouds FEW065 37.2 21.6 40% 42 76.07 0.0
03 14:15 SW 11 16.09 A Few Clouds FEW065 36.6 21.2 41% 41 76.07 0.0
Date Time (cdt) Wind (kph) Vis. (km) Weather Sky Cond. Air Dwpt Max. Min. Relative Humidity Wind Chill (°C) Heat Index (°C) altimeter (cm) sea level (mb) 1 hr 3 hr 6 hr
6 hour
Temperature (ºC) Pressure Precipitation (cm)